Latest Weather Observations for Sellicks Hill

IDS60901

Issued at 6:31 pm CDT Monday 23 October 2017 (issued every 10 minutes, with the page automatically refreshed every 10 minutes)

About weather observations | Map of Adelaide area stations | Latest observations for Adelaide area | Other Formats
Station Details ID: 023886 Name: MOUNT TERRIBLE RADAR Lat: -35.33 Lon: 138.50 Height: 385.7 m
Data from the previous 72 hours. | See also: Recent months for locations in South Australia
Date/Time
CDT
Temp
°C
App
Temp
°C
Dew
Point
°C
Rel
Hum
%
Delta-T
°C
Wind Press
QNH
hPa
Press
MSL
hPa
Rain since
9am
mm
Dir  Spd
km/h
Gust
km/h
Spd
kts
Gust
kts
23/06:00pm - - - - - ESE 15 20 8 11 - - -
23/05:30pm - - - - - SE 17 20 9 11 - - -
23/05:00pm - - - - - SSE 15 19 8 10 - - -
23/04:30pm - - - - - S 4 6 2 3 - - -
23/04:00pm - - - - - WNW 4 7 2 4 - - -
23/03:30pm - - - - - WNW 4 6 2 3 - - -
23/03:00pm - - - - - W 2 9 1 5 - - -
23/02:30pm - - - - - WNW 6 13 3 7 - - -
23/02:00pm - - - - - WNW 7 13 4 7 - - -
23/01:30pm - - - - - NW 6 11 3 6 - - -
23/01:00pm - - - - - W 7 13 4 7 - - -
23/12:30pm - - - - - WNW 6 11 3 6 - - -
23/12:00pm - - - - - N 4 9 2 5 - - -
23/11:30am - - - - - NNW 6 11 3 6 - - -
23/11:00am - - - - - WNW 6 9 3 5 - - -
23/10:30am - - - - - N 6 9 3 5 - - -
23/10:00am - - - - - NNE 6 9 3 5 - - -
23/09:30am - - - - - N 4 7 2 4 - - -
23/09:00am - - - - - NE 4 7 2 4 - - -
23/08:30am - - - - - E 9 15 5 8 - - -
23/08:00am - - - - - ESE 15 26 8 14 - - -
23/07:30am - - - - - ESE 15 20 8 11 - - -
23/07:00am - - - - - SE 17 20 9 11 - - -
23/06:30am - - - - - SE 20 26 11 14 - - -
23/06:00am - - - - - SE 19 22 10 12 - - -
23/05:30am - - - - - SE 17 20 9 11 - - -
23/05:00am - - - - - SE 9 15 5 8 - - -
23/04:30am - - - - - SE 9 15 5 8 - - -
23/04:00am - - - - - SE 11 15 6 8 - - -
23/03:30am - - - - - SSE 11 15 6 8 - - -
23/03:00am - - - - - SE 13 17 7 9 - - -
23/02:30am - - - - - SE 7 9 4 5 - - -
23/02:00am - - - - - SE 9 13 5 7 - - -
23/01:30am - - - - - S 4 7 2 4 - - -
23/01:00am - - - - - SSE 11 11 6 6 - - -
23/12:30am - - - - - SSE 11 15 6 8 - - -
23/12:00am - - - - - SSE 11 17 6 9 - - -
 
Date/Time
CDT
Temp
°C
App
Temp
°C
Dew
Point
°C
Rel
Hum
%
Delta-T
°C
Wind Press
QNH
hPa
Press
MSL
hPa
Rain since
9am
mm
Dir  Spd
km/h
Gust
km/h
Spd
kts
Gust
kts
22/11:30pm - - - - - SSE 9 13 5 7 - - -
22/11:00pm - - - - - SSE 15 19 8 10 - - -
22/10:30pm - - - - - SSE 15 19 8 10 - - -
22/10:00pm - - - - - SSE 11 17 6 9 - - -
22/09:30pm - - - - - SSE 20 22 11 12 - - -
22/09:00pm - - - - - SSE 15 17 8 9 - - -
22/08:30pm - - - - - SSE 13 15 7 8 - - -
22/08:00pm - - - - - SSE 9 13 5 7 - - -
22/07:30pm - - - - - S 7 19 4 10 - - -
22/07:00pm - - - - - SSW 6 11 3 6 - - -
22/06:30pm - - - - - SSW 6 9 3 5 - - -
22/06:00pm - - - - - SSW 6 9 3 5 - - -
22/05:30pm - - - - - SSW 7 17 4 9 - - -
22/05:00pm - - - - - SSW 9 19 5 10 - - -
22/04:30pm - - - - - S 13 20 7 11 - - -
22/04:00pm - - - - - SSW 9 17 5 9 - - -
22/03:30pm - - - - - SSW 7 15 4 8 - - -
22/03:00pm - - - - - S 9 20 5 11 - - -
22/02:30pm - - - - - S 11 19 6 10 - - -
22/02:00pm - - - - - S 13 22 7 12 - - -
22/01:30pm - - - - - S 7 15 4 8 - - -
22/01:00pm - - - - - SSW 9 19 5 10 - - -
22/12:30pm - - - - - SSW 11 20 6 11 - - -
22/12:00pm - - - - - S 13 26 7 14 - - -
22/11:30am - - - - - SSW 11 19 6 10 - - -
22/11:00am - - - - - S 11 19 6 10 - - -
22/10:30am - - - - - S 13 20 7 11 - - -
22/10:00am - - - - - SW 7 15 4 8 - - -
22/09:30am - - - - - SSW 7 15 4 8 - - -
22/09:00am - - - - - SW 6 13 3 7 - - -
22/08:30am - - - - - SSW 7 15 4 8 - - -
22/08:00am - - - - - S 6 9 3 5 - - -
22/07:30am - - - - - S 6 9 3 5 - - -
22/07:00am - - - - - SSW 4 15 2 8 - - -
22/06:30am - - - - - SSW 6 9 3 5 - - -
22/06:00am - - - - - SSW 7 13 4 7 - - -
22/05:30am - - - - - SSW 6 11 3 6 - - -
22/05:00am - - - - - SSW 4 9 2 5 - - -
22/04:30am - - - - - S 17 24 9 13 - - -
22/04:00am - - - - - S 19 24 10 13 - - -
22/03:30am - - - - - S 17 30 9 16 - - -
22/03:00am - - - - - S 15 22 8 12 - - -
22/02:30am - - - - - S 7 17 4 9 - - -
22/02:00am - - - - - S 13 20 7 11 - - -
22/01:30am - - - - - SSW 7 13 4 7 - - -
22/01:00am - - - - - S 17 24 9 13 - - -
22/12:30am - - - - - S 13 17 7 9 - - -
22/12:00am - - - - - SSW 7 19 4 10 - - -
 
Date/Time
CDT
Temp
°C
App
Temp
°C
Dew
Point
°C
Rel
Hum
%
Delta-T
°C
Wind Press
QNH
hPa
Press
MSL
hPa
Rain since
9am
mm
Dir  Spd
km/h
Gust
km/h
Spd
kts
Gust
kts
21/11:30pm - - - - - SSW 6 11 3 6 - - -
21/11:00pm - - - - - S 15 20 8 11 - - -
21/10:30pm - - - - - S 13 20 7 11 - - -
21/10:00pm - - - - - S 13 20 7 11 - - -
21/09:30pm - - - - - S 11 20 6 11 - - -
21/09:00pm - - - - - S 11 20 6 11 - - -
21/08:30pm - - - - - S 15 22 8 12 - - -
21/08:00pm - - - - - SSW 9 17 5 9 - - -
21/07:30pm - - - - - S 11 22 6 12 - - -
21/07:00pm - - - - - S 19 28 10 15 - - -
21/06:30pm - - - - - SSW 11 20 6 11 - - -
21/06:00pm - - - - - SSW 9 15 5 8 - - -
21/05:30pm - - - - - S 15 24 8 13 - - -
21/05:00pm - - - - - S 19 28 10 15 - - -
21/04:30pm - - - - - S 17 30 9 16 - - -
21/04:00pm - - - - - SSW 13 30 7 16 - - -
21/03:30pm - - - - - SSW 15 33 8 18 - - -
21/03:00pm - - - - - S 15 30 8 16 - - -
21/02:30pm - - - - - S 20 30 11 16 - - -
21/02:00pm - - - - - S 17 26 9 14 - - -
21/01:30pm - - - - - S 11 22 6 12 - - -
21/01:00pm - - - - - S 15 24 8 13 - - -
21/12:30pm - - - - - S 13 24 7 13 - - -
21/12:00pm - - - - - S 20 28 11 15 - - -
21/11:30am - - - - - SSE 20 28 11 15 - - -
21/11:00am - - - - - S 19 32 10 17 - - -
21/10:30am - - - - - SSE 17 24 9 13 - - -
21/10:00am - - - - - S 19 26 10 14 - - -
21/09:30am - - - - - S 22 32 12 17 - - -
21/09:00am - - - - - S 19 30 10 16 - - -
21/08:30am - - - - - S 19 28 10 15 - - -
21/08:00am - - - - - SSE 20 30 11 16 - - -
21/07:30am - - - - - SSE 22 30 12 16 - - -
21/07:00am - - - - - SSE 26 35 14 19 - - -
21/06:30am - - - - - SSE 19 26 10 14 - - -
21/06:00am - - - - - SSE 24 32 13 17 - - -
21/05:30am - - - - - SSE 20 26 11 14 - - -
21/05:00am - - - - - SSE 20 26 11 14 - - -
21/04:30am - - - - - SSE 19 24 10 13 - - -
21/04:00am - - - - - SSE 20 28 11 15 - - -
21/03:30am - - - - - SSE 22 28 12 15 - - -
21/03:00am - - - - - SSE 28 33 15 18 - - -
21/02:30am - - - - - SSE 33 41 18 22 - - -
21/02:00am - - - - - SSE 32 37 17 20 - - -
21/01:30am - - - - - SSE 28 35 15 19 - - -
21/01:00am - - - - - SSE 33 41 18 22 - - -
21/12:30am - - - - - SSE 30 37 16 20 - - -
21/12:00am - - - - - SSE 37 44 20 24 - - -
 
Date/Time
CDT
Temp
°C
App
Temp
°C
Dew
Point
°C
Rel
Hum
%
Delta-T
°C
Wind Press
QNH
hPa
Press
MSL
hPa
Rain since
9am
mm
Dir  Spd
km/h
Gust
km/h
Spd
kts
Gust
kts
20/11:30pm - - - - - SSE 35 46 19 25 - - -
20/11:00pm - - - - - SSE 37 48 20 26 - - -
20/10:30pm - - - - - SSE 35 50 19 27 - - -
20/10:00pm - - - - - SSE 35 43 19 23 - - -
20/09:30pm - - - - - SSE 35 48 19 26 - - -
20/09:00pm - - - - - SSE 43 54 23 29 - - -
20/08:30pm - - - - - SSE 33 46 18 25 - - -
20/08:00pm - - - - - SSE 32 41 17 22 - - -
20/07:30pm - - - - - SSE 35 44 19 24 - - -
20/07:00pm - - - - - S 37 46 20 25 - - -

Latest Capital City Observations: Canberra | Sydney | Melbourne | Brisbane | Adelaide | Perth | Hobart | Darwin

Other Formats:

Comma delimited format used in spreadsheet applications
http://www.bom.gov.au/fwo/IDS60901/IDS60901.95679.axf

JavaScript Object Notation format (JSON) in row-major order
http://www.bom.gov.au/fwo/IDS60901/IDS60901.95679.json